Time;durP1;ratioP1;P1;durP2;ratioP2;P2;SDS_P1;SDS_P2;PMS_P1;PMS_P2;Temp;Humidity;BMP_temperature;BMP_pressure;BME280_temperature;BME280_humidity;BME280_pressure;Samples;Min_cycle;Max_cycle;Signal;HPM_P1;HPM_P2
2023/03/21 00:00:41;;;;;;;8.40;4.35;;;;;;;11.44;65.20;101648.03;5074088;28;20044;-62
2023/03/21 00:03:10;;;;;;;9.57;4.18;;;;;;;11.42;65.48;101642.88;5079129;28;20103;-62
2023/03/21 00:05:40;;;;;;;8.38;3.58;;;;;;;11.43;65.34;101641.00;5082627;28;20127;-62
2023/03/21 00:08:08;;;;;;;7.45;3.38;;;;;;;11.41;65.31;101636.66;5077539;28;20044;-61
2023/03/21 00:10:37;;;;;;;7.90;4.00;;;;;;;11.41;65.41;101630.44;5078271;28;20087;-62
2023/03/21 00:13:11;;;;;;;8.88;4.00;;;;;;;11.40;65.37;101631.47;5080853;28;20053;-62
2023/03/21 00:15:48;;;;;;;9.07;3.40;;;;;;;11.40;65.34;101624.22;5079155;28;20047;-62
2023/03/21 00:18:40;;;;;;;9.70;3.22;;;;;;;11.41;65.43;101625.06;5071723;28;20045;-62
2023/03/21 00:21:11;;;;;;;7.03;3.38;;;;;;;11.40;65.40;101612.63;5081625;28;20048;-61
2023/03/21 00:24:00;;;;;;;10.73;4.28;;;;;;;11.40;65.61;101620.72;5078609;28;20052;-62
2023/03/21 00:26:28;;;;;;;6.70;3.88;;;;;;;11.40;65.61;101612.63;5080078;28;20087;-62
2023/03/21 00:28:56;;;;;;;6.95;3.58;;;;;;;11.39;65.57;101606.44;5077852;28;20101;-62
2023/03/21 00:31:24;;;;;;;7.70;3.10;;;;;;;11.39;65.32;101611.81;5082501;28;20052;-62
2023/03/21 00:33:53;;;;;;;12.10;3.95;;;;;;;11.38;65.73;101604.78;5080479;28;20060;-62
2023/03/21 00:36:24;;;;;;;8.52;4.18;;;;;;;11.38;65.66;101601.25;5082910;28;20497;-62
2023/03/21 00:38:52;;;;;;;8.18;3.20;;;;;;;11.30;65.33;101588.00;5080569;28;20048;-62
2023/03/21 00:41:20;;;;;;;13.45;4.45;;;;;;;11.38;65.59;101603.94;5080403;28;20049;-62
2023/03/21 00:44:07;;;;;;;;;;;;;;;11.38;65.73;101596.69;5072503;28;20049;-62
2023/03/21 00:46:35;;;;;;;8.52;3.50;;;;;;;11.38;65.57;101591.31;5081313;28;19956;-62
2023/03/21 00:49:17;;;;;;;8.68;3.78;;;;;;;11.38;65.81;101582.41;5075552;28;20064;-62
2023/03/21 00:51:45;;;;;;;7.65;3.22;;;;;;;11.39;65.51;101579.50;5078612;28;20056;-62
2023/03/21 00:54:13;;;;;;;5.60;3.65;;;;;;;11.39;65.80;101574.13;5075221;28;20052;-62
2023/03/21 00:56:41;;;;;;;6.80;3.38;;;;;;;11.39;65.78;101574.13;5083879;28;20064;-62
2023/03/21 00:59:09;;;;;;;7.70;3.97;;;;;;;11.38;65.46;101572.47;5074735;28;20101;-62
2023/03/21 01:01:36;;;;;;;8.88;3.65;;;;;;;11.40;65.66;101572.25;5079454;28;20040;-61
2023/03/21 01:04:12;;;;;;;5.57;2.97;;;;;;;11.39;65.79;101562.53;5074930;28;20065;-62
2023/03/21 01:06:42;;;;;;;8.00;2.90;;;;;;;11.38;65.60;101561.72;5077640;28;20048;-62
2023/03/21 01:09:14;;;;;;;6.60;2.97;;;;;;;11.39;65.64;101562.53;5080161;28;20096;-61
2023/03/21 01:11:42;;;;;;;5.80;3.38;;;;;;;11.38;65.53;101558.19;5077738;28;20036;-61
2023/03/21 01:14:11;;;;;;;10.13;3.13;;;;;;;11.37;65.74;101553.84;5074219;28;20041;-61
2023/03/21 01:16:49;;;;;;;7.18;4.07;;;;;;;11.37;65.49;101560.06;5077461;28;20055;-61
2023/03/21 01:19:19;;;;;;;9.15;3.13;;;;;;;11.37;65.63;101551.97;5074568;28;20045;-60
2023/03/21 01:22:09;;;;;;;5.75;3.08;;;;;;;11.37;65.62;101551.16;5079272;28;20098;-60
2023/03/21 01:24:36;;;;;;;9.13;3.45;;;;;;;11.38;65.68;101550.13;5079900;28;20055;-63
2023/03/21 01:27:18;;;;;;;7.80;3.45;;;;;;;11.37;65.53;101545.78;5075786;28;20048;-61
2023/03/21 01:29:46;;;;;;;6.97;3.33;;;;;;;11.36;65.69;101544.94;5080939;28;20130;-62
2023/03/21 01:32:14;;;;;;;9.35;3.47;;;;;;;11.36;65.68;101541.44;5080579;28;20054;-61
2023/03/21 01:34:42;;;;;;;6.65;3.53;;;;;;;11.35;65.61;101539.78;5078021;28;20517;-60
2023/03/21 01:37:11;;;;;;;7.38;2.80;;;;;;;11.34;65.63;101535.44;5078659;28;20041;-61
2023/03/21 01:39:39;;;;;;;6.63;3.25;;;;;;;11.32;65.45;101527.56;5079209;28;20045;-61
2023/03/21 01:42:07;;;;;;;7.82;3.67;;;;;;;11.31;65.44;101533.97;5079397;28;20052;-60
2023/03/21 01:44:53;;;;;;;6.93;3.50;;;;;;;11.31;65.64;101528.59;5075870;28;20048;-62
2023/03/21 01:47:21;;;;;;;5.85;3.30;;;;;;;11.30;65.65;101529.63;5072423;28;20079;-61
2023/03/21 01:49:52;;;;;;;5.05;2.85;;;;;;;11.30;65.67;101526.94;5079026;28;20052;-61
2023/03/21 01:52:24;;;;;;;7.97;3.22;;;;;;;11.30;65.56;101526.13;5075762;28;20064;-61
2023/03/21 01:55:10;;;;;;;7.22;3.28;;;;;;;11.30;65.86;101524.25;5072205;28;20044;-61
2023/03/21 01:57:44;;;;;;;8.48;2.88;;;;;;;11.30;65.66;101523.44;5076911;28;20084;-62
2023/03/21 02:00:32;;;;;;;6.57;3.17;;;;;;;11.28;65.81;101520.94;5068354;28;20052;-62
2023/03/21 02:03:02;;;;;;;11.30;3.72;;;;;;;11.30;65.85;101520.75;5075477;28;20136;-62
2023/03/21 02:05:52;;;;;;;8.15;3.05;;;;;;;11.30;65.76;101509.97;5080478;28;20049;-62
2023/03/21 02:08:22;;;;;;;7.35;3.33;;;;;;;11.28;65.64;101506.66;5079370;28;20036;-62
2023/03/21 02:11:05;;;;;;;8.98;3.72;;;;;;;11.28;65.63;101499.41;5076663;28;20116;-62
2023/03/21 02:13:33;;;;;;;8.80;3.72;;;;;;;11.28;65.81;101502.09;5075291;28;20056;-62
2023/03/21 02:16:07;;;;;;;9.15;3.60;;;;;;;11.28;65.71;101496.72;5068404;28;20085;-62
2023/03/21 02:18:43;;;;;;;7.40;3.50;;;;;;;11.27;65.61;101499.63;5078882;28;20076;-61
2023/03/21 02:21:43;;;;;;;7.85;3.10;;;;;;;11.27;65.59;101492.38;5079864;28;20104;-62
2023/03/21 02:24:47;;;;;;;9.38;3.63;;;;;;;11.26;65.52;101485.34;5071821;28;20052;-62
2023/03/21 02:27:27;;;;;;;7.68;3.30;;;;;;;11.25;65.65;101491.78;5071924;28;20552;-61
2023/03/21 02:30:33;;;;;;;8.60;4.07;;;;;;;11.25;65.57;101482.88;5071229;28;20048;-60
2023/03/21 02:33:42;;;;;;;9.95;3.30;;;;;;;11.26;65.89;101485.34;5079692;28;20051;-61
2023/03/21 02:36:25;;;;;;;7.57;3.40;;;;;;;11.27;65.78;101475.41;5070657;28;20045;-62
2023/03/21 02:39:07;;;;;;;7.45;3.50;;;;;;;11.26;65.76;101471.91;5075786;28;20102;-62
2023/03/21 02:41:46;;;;;;;10.10;3.92;;;;;;;11.26;65.80;101466.50;5079727;28;20068;-62
2023/03/21 02:44:21;;;;;;;7.07;3.60;;;;;;;11.26;65.75;101466.50;5075194;28;20128;-62
2023/03/21 02:46:53;;;;;;;8.23;3.17;;;;;;;11.27;65.92;101468.16;5076136;28;20045;-62
2023/03/21 02:49:39;;;;;;;5.93;3.17;;;;;;;11.27;65.54;101462.78;5074996;28;20095;-62
2023/03/21 02:52:11;;;;;;;8.38;3.58;;;;;;;11.26;65.75;101461.13;5076950;28;20441;-61
2023/03/21 02:54:52;;;;;;;5.40;2.75;;;;;;;11.27;65.83;101468.16;5074331;28;20059;-61
2023/03/21 02:57:21;;;;;;;5.90;3.55;;;;;;;11.27;65.71;101461.97;5082307;28;20049;-61
2023/03/21 02:59:55;;;;;;;8.63;3.38;;;;;;;11.27;65.83;101452.03;5070184;28;20044;-61
2023/03/21 03:02:32;;;;;;;8.15;3.50;;;;;;;11.27;65.71;101451.19;5078564;28;20143;-61
2023/03/21 03:05:00;;;;;;;7.60;3.63;;;;;;;11.26;65.59;101455.75;5071852;28;20087;-62
2023/03/21 03:07:44;;;;;;;8.50;3.92;;;;;;;11.27;65.75;101456.56;5078949;28;20087;-61
2023/03/21 03:10:27;;;;;;;6.88;3.30;;;;;;;11.27;65.59;101451.19;5075238;28;20041;-61
2023/03/21 03:13:10;;;;;;;7.25;3.17;;;;;;;11.26;65.64;101450.38;5082260;28;20044;-61
2023/03/21 03:15:47;;;;;;;4.80;3.30;;;;;;;11.24;65.34;101447.06;5077020;28;20108;-62
2023/03/21 03:18:22;;;;;;;8.07;3.35;;;;;;;11.25;65.69;101450.59;5077443;28;20075;-61
2023/03/21 03:20:59;;;;;;;7.65;3.30;;;;;;;11.23;65.94;101449.97;5081678;28;20053;-61
2023/03/21 03:23:33;;;;;;;8.75;2.95;;;;;;;11.22;65.72;101445.63;5080046;28;20064;-61
2023/03/21 03:26:08;;;;;;;7.57;4.05;;;;;;;11.22;65.78;101442.94;5081230;28;20052;-61
2023/03/21 03:28:38;;;;;;;7.38;3.03;;;;;;;11.20;65.81;101440.44;5080671;28;20124;-61
2023/03/21 03:31:10;;;;;;;8.55;3.30;;;;;;;11.19;65.81;101441.50;5077119;28;20079;-61
2023/03/21 03:33:43;;;;;;;9.00;3.25;;;;;;;11.18;65.78;101437.16;5079491;28;20076;-61
2023/03/21 03:36:13;;;;;;;6.10;3.17;;;;;;;11.19;66.05;101438.81;5072261;28;20055;-61
2023/03/21 03:38:59;;;;;;;8.03;3.40;;;;;;;11.19;65.99;101435.28;5083216;28;20047;-62
2023/03/21 03:41:29;;;;;;;6.95;3.15;;;;;;;11.17;66.06;101431.97;5078416;28;20347;-62
2023/03/21 03:44:16;;;;;;;7.10;3.67;;;;;;;11.17;65.78;101434.66;5065254;28;20056;-62
2023/03/21 03:46:51;;;;;;;7.97;3.13;;;;;;;11.17;65.90;101429.28;5070877;28;20086;-60
2023/03/21 03:49:23;;;;;;;12.63;3.65;;;;;;;11.16;65.99;101425.78;5079573;28;20048;-61
2023/03/21 03:51:55;;;;;;;13.43;3.70;;;;;;;11.15;66.03;101429.50;5077906;28;20144;-61
2023/03/21 03:54:28;;;;;;;8.65;3.95;;;;;;;11.16;66.04;101428.47;5076552;28;20041;-62
2023/03/21 03:56:58;;;;;;;9.90;3.35;;;;;;;11.15;65.93;101423.28;5076470;28;20139;-61
2023/03/21 03:59:26;;;;;;;8.50;3.50;;;;;;;11.15;66.03;101420.59;5083056;28;20044;-61
2023/03/21 04:01:54;;;;;;;8.32;3.92;;;;;;;11.06;66.03;101407.38;5080765;28;20109;-61
2023/03/21 04:04:28;;;;;;;7.63;3.42;;;;;;;11.12;65.98;101419.16;5082295;28;20059;-61
2023/03/21 04:06:56;;;;;;;7.70;3.15;;;;;;;11.12;66.03;101418.34;5082207;28;20101;-62
2023/03/21 04:09:25;;;;;;;6.88;3.70;;;;;;;11.11;66.26;101414.00;5081002;28;20124;-62
2023/03/21 04:12:11;;;;;;;6.32;3.17;;;;;;;11.10;66.10;101410.47;5081938;28;20056;-61
2023/03/21 04:14:39;;;;;;;9.52;3.78;;;;;;;11.11;66.07;101420.19;5083150;28;20064;-61
2023/03/21 04:17:14;;;;;;;7.10;3.67;;;;;;;11.11;66.06;101409.44;5077680;28;20465;-61
2023/03/21 04:19:42;;;;;;;6.95;3.55;;;;;;;11.09;66.06;101403.44;5075641;28;20075;-62
2023/03/21 04:22:10;;;;;;;9.18;3.92;;;;;;;11.13;65.92;101403.84;5082106;28;20053;-61
2023/03/21 04:24:38;;;;;;;7.65;4.03;;;;;;;11.13;66.04;101403.84;5083422;28;20044;-61
2023/03/21 04:27:06;;;;;;;9.55;3.92;;;;;;;11.13;65.97;101398.47;5071384;28;20059;-61
2023/03/21 04:29:35;;;;;;;8.60;4.00;;;;;;;11.13;66.04;101403.84;5071984;28;20100;-61
2023/03/21 04:32:05;;;;;;;8.07;3.47;;;;;;;11.13;65.83;101399.28;5077078;28;20037;-61
2023/03/21 04:34:32;;;;;;;9.23;3.72;;;;;;;11.13;65.96;101390.41;5080417;28;20076;-61
2023/03/21 04:37:00;;;;;;;8.45;3.88;;;;;;;11.14;66.09;101392.03;5076197;28;20052;-61
2023/03/21 04:39:28;;;;;;;6.78;3.67;;;;;;;11.15;66.02;101382.94;5069923;28;20097;-62
2023/03/21 04:41:56;;;;;;;9.05;3.72;;;;;;;11.13;65.88;101377.78;5076510;28;20052;-61
2023/03/21 04:44:23;;;;;;;6.55;3.70;;;;;;;11.13;65.86;101377.78;5073472;28;20083;-61
2023/03/21 04:46:53;;;;;;;9.07;4.03;;;;;;;11.13;65.94;101385.00;5078880;28;20219;-61
2023/03/21 04:49:20;;;;;;;8.13;4.15;;;;;;;11.14;66.17;101383.97;5080402;28;20104;-61
2023/03/21 04:51:48;;;;;;;7.57;3.28;;;;;;;11.14;66.00;101376.72;5072011;28;20587;-61
2023/03/21 04:54:16;;;;;;;7.63;3.83;;;;;;;11.14;66.09;101373.22;5080894;28;20074;-62
2023/03/21 04:56:44;;;;;;;12.55;4.60;;;;;;;11.12;66.08;101364.53;5077091;28;20055;-61
2023/03/21 04:59:14;;;;;;;10.18;4.07;;;;;;;11.12;65.84;101372.59;5078494;28;20075;-61
2023/03/21 05:01:43;;;;;;;13.80;4.22;;;;;;;11.09;65.99;101372.00;5074773;28;20045;-61
2023/03/21 05:04:14;;;;;;;6.53;3.25;;;;;;;11.10;65.96;101367.44;5076894;28;20064;-61
2023/03/21 05:06:43;;;;;;;8.93;3.75;;;;;;;11.10;65.92;101372.81;5079251;28;20040;-61
2023/03/21 05:09:12;;;;;;;7.95;3.55;;;;;;;11.08;66.12;101372.19;5074950;28;20045;-62
2023/03/21 05:11:40;;;;;;;8.88;3.92;;;;;;;11.07;66.01;101374.06;5079584;28;20104;-61
2023/03/21 05:14:11;;;;;;;8.10;3.88;;;;;;;11.07;66.05;101362.47;5080225;28;20091;-61
2023/03/21 05:16:47;;;;;;;8.30;3.95;;;;;;;11.06;65.93;101363.53;5080751;28;20123;-61
2023/03/21 05:19:17;;;;;;;10.45;3.63;;;;;;;11.07;65.98;101362.47;5074733;28;20553;-61
2023/03/21 05:21:46;;;;;;;11.98;4.95;;;;;;;11.05;65.98;101362.69;5080624;28;20048;-61
2023/03/21 05:24:16;;;;;;;13.90;3.95;;;;;;;11.05;65.81;101360.00;5074548;28;20048;-61
2023/03/21 05:26:49;;;;;;;10.05;3.80;;;;;;;11.05;65.98;101376.13;5079971;28;20395;-60
2023/03/21 05:29:18;;;;;;;7.60;3.90;;;;;;;11.05;65.97;101369.94;5079857;28;20064;-61
2023/03/21 05:31:46;;;;;;;7.60;2.72;;;;;;;11.05;65.98;101364.56;5079340;28;20048;-61
2023/03/21 05:34:14;;;;;;;6.93;3.40;;;;;;;11.04;66.09;101358.34;5079756;28;20041;-61
2023/03/21 05:36:43;;;;;;;9.57;3.53;;;;;;;11.05;65.81;101362.69;5079257;28;20556;-61
2023/03/21 05:39:11;;;;;;;7.00;3.67;;;;;;;11.05;65.95;101360.00;5076539;28;20068;-61
2023/03/21 05:41:38;;;;;;;6.55;3.53;;;;;;;11.05;65.77;101361.88;5079690;28;20044;-62
2023/03/21 05:44:06;;;;;;;6.60;3.17;;;;;;;11.05;65.98;101356.50;5072948;28;20056;-61
2023/03/21 05:46:34;;;;;;;8.20;3.30;;;;;;;11.04;65.81;101352.16;5077030;28;20049;-61
2023/03/21 05:49:02;;;;;;;7.78;3.20;;;;;;;11.04;65.75;101361.03;5069028;28;20054;-61
2023/03/21 05:51:30;;;;;;;6.93;3.05;;;;;;;11.03;66.06;101363.94;5080490;28;20074;-61
2023/03/21 05:53:59;;;;;;;15.07;4.13;;;;;;;11.03;66.03;101364.78;5071691;28;20170;-62
2023/03/21 05:56:26;;;;;;;10.07;4.63;;;;;;;11.01;65.83;101360.63;5070921;28;20073;-63
2023/03/21 05:58:54;;;;;;;9.55;3.10;;;;;;;11.03;65.91;101358.56;5074516;28;20098;-61
2023/03/21 06:01:22;;;;;;;8.18;3.22;;;;;;;11.05;65.96;101364.56;5076861;28;20060;-64
2023/03/21 06:03:50;;;;;;;8.80;3.05;;;;;;;11.05;65.95;101356.50;5069705;28;20091;-64
2023/03/21 06:06:17;;;;;;;6.50;2.65;;;;;;;11.05;65.88;101367.25;5081904;28;20112;-64
2023/03/21 06:08:47;;;;;;;6.22;2.70;;;;;;;11.06;65.83;101360.84;5079686;28;20131;-62
2023/03/21 06:11:23;;;;;;;7.78;3.17;;;;;;;11.07;66.00;101362.47;5069019;28;20182;-62
2023/03/21 06:13:51;;;;;;;10.45;2.92;;;;;;;11.05;65.61;101354.63;5074574;28;20053;-63
2023/03/21 06:16:19;;;;;;;12.10;3.10;;;;;;;11.06;65.76;101355.44;5081349;28;20066;-62
2023/03/21 06:18:46;;;;;;;11.80;2.92;;;;;;;11.06;65.69;101358.97;5073562;28;20049;-63
2023/03/21 06:21:15;;;;;;;8.27;3.35;;;;;;;11.07;66.13;101357.09;5081415;28;20341;-64
2023/03/21 06:23:42;;;;;;;8.48;2.63;;;;;;;11.07;65.86;101366.00;5070045;28;20068;-63
2023/03/21 06:26:10;;;;;;;7.80;2.80;;;;;;;11.08;65.72;101373.03;4725019;28;10001843;-64
2023/03/21 06:28:39;;;;;;;9.95;3.53;;;;;;;11.08;65.75;101366.81;4703523;28;10000748;-63
2023/03/21 06:31:07;;;;;;;7.40;3.17;;;;;;;11.07;65.87;101362.47;5054146;28;20451;-64
2023/03/21 06:33:35;;;;;;;9.00;3.28;;;;;;;11.07;65.98;101371.38;5053687;28;20059;-63
2023/03/21 06:36:03;;;;;;;5.85;2.40;;;;;;;11.05;65.94;101368.06;5054212;28;20056;-63
2023/03/21 06:38:31;;;;;;;6.82;2.72;;;;;;;11.05;66.03;101373.44;5040924;28;20050;-62
2023/03/21 06:40:59;;;;;;;8.48;2.85;;;;;;;11.05;66.16;101378.84;5045839;28;20049;-61
2023/03/21 06:43:27;;;;;;;7.38;3.17;;;;;;;11.04;66.08;101377.19;5046155;28;20570;-61
2023/03/21 06:45:56;;;;;;;9.32;3.17;;;;;;;11.04;66.04;101373.66;5047410;28;20136;-61
2023/03/21 06:48:23;;;;;;;5.85;2.65;;;;;;;11.04;65.99;101376.34;5045372;28;20430;-61
2023/03/21 06:50:52;;;;;;;7.75;2.75;;;;;;;11.05;65.90;101378.84;5053709;28;20106;-61
2023/03/21 06:53:23;;;;;;;7.10;2.50;;;;;;;11.04;66.02;101377.19;5047878;28;20550;-62
2023/03/21 06:55:51;;;;;;;5.53;2.20;;;;;;;11.04;65.96;101376.34;5052574;28;20063;-61
2023/03/21 06:58:19;;;;;;;7.03;2.50;;;;;;;11.05;66.21;101372.63;5053952;28;20136;-61
2023/03/21 07:00:48;;;;;;;7.80;3.15;;;;;;;11.05;66.01;101378.00;5057309;28;20238;-61
2023/03/21 07:03:18;;;;;;;6.93;2.50;;;;;;;11.06;66.23;101379.66;5040931;28;20068;-61
2023/03/21 07:05:46;;;;;;;8.23;2.65;;;;;;;11.06;66.24;101390.41;5062081;28;20053;-62
2023/03/21 07:08:14;;;;;;;8.88;2.75;;;;;;;11.05;65.95;101386.06;5070822;28;20116;-62
2023/03/21 07:10:44;;;;;;;7.55;2.28;;;;;;;11.05;66.23;101386.91;5077469;28;20063;-62
2023/03/21 07:13:12;;;;;;;5.65;2.40;;;;;;;11.05;66.14;101389.59;5078915;28;20044;-65
2023/03/21 07:15:40;;;;;;;8.52;3.38;;;;;;;11.03;67.54;101393.53;4729526;28;9999822;-62
2023/03/21 07:18:09;;;;;;;10.52;3.33;;;;;;;11.03;66.78;101393.53;5078624;28;20072;-61
2023/03/21 07:20:38;;;;;;;7.90;2.88;;;;;;;11.03;66.93;101401.59;5072480;28;20065;-62
2023/03/21 07:23:06;;;;;;;7.97;2.88;;;;;;;11.03;66.62;101399.72;5074234;28;20135;-62
2023/03/21 07:25:34;;;;;;;6.65;2.65;;;;;;;11.02;66.50;101410.69;5076483;28;20150;-62
2023/03/21 07:28:02;;;;;;;13.98;3.50;;;;;;;11.01;66.50;101404.50;5079416;28;20060;-62
2023/03/21 07:30:30;;;;;;;7.55;2.80;;;;;;;11.00;68.33;101402.84;5072097;28;20076;-64
2023/03/21 07:32:58;;;;;;;6.78;2.80;;;;;;;11.01;68.47;101406.38;5073511;28;20136;-63
2023/03/21 07:35:25;;;;;;;11.40;3.15;;;;;;;11.02;68.51;101408.84;5077033;28;20076;-63
2023/03/21 07:37:55;;;;;;;7.05;2.90;;;;;;;11.03;68.72;101406.97;5079678;28;20053;-63
2023/03/21 07:40:22;;;;;;;10.85;3.30;;;;;;;11.02;68.57;101416.91;5079158;28;20048;-63
2023/03/21 07:42:50;;;;;;;5.68;2.42;;;;;;;11.03;68.62;101402.44;5080544;28;20045;-64
2023/03/21 07:45:20;;;;;;;12.05;3.10;;;;;;;11.01;69.11;101401.81;5079169;28;20074;-63
2023/03/21 07:47:49;;;;;;;7.07;3.35;;;;;;;11.02;68.99;101406.16;5075940;28;20102;-62
2023/03/21 07:50:17;;;;;;;7.53;3.00;;;;;;;11.02;68.93;101400.78;5072473;28;20059;-63
2023/03/21 07:52:46;;;;;;;9.02;3.42;;;;;;;11.04;69.05;101389.81;5074785;28;20083;-63
2023/03/21 07:55:16;;;;;;;7.30;3.13;;;;;;;11.03;68.82;101380.91;5074787;28;20087;-63
2023/03/21 07:57:44;;;;;;;7.55;3.10;;;;;;;11.04;69.05;101385.25;5078657;28;20398;-63
2023/03/21 08:00:21;;;;;;;10.65;3.65;;;;;;;11.02;68.99;101376.56;5074633;28;20048;-63
2023/03/21 08:02:53;;;;;;;7.25;2.67;;;;;;;11.05;68.98;101373.44;5078906;28;20104;-64
2023/03/21 08:05:27;;;;;;;6.82;2.78;;;;;;;11.05;69.16;101373.44;5074568;28;20052;-64
2023/03/21 08:07:55;;;;;;;10.43;3.72;;;;;;;11.06;69.47;101366.22;5077692;28;20049;-62
2023/03/21 08:10:24;;;;;;;6.35;2.60;;;;;;;11.06;68.98;101361.66;5073314;28;20049;-64
2023/03/21 08:12:53;;;;;;;7.93;2.78;;;;;;;11.07;69.10;101352.53;5066817;28;20053;-65
2023/03/21 08:15:21;;;;;;;10.63;3.38;;;;;;;11.06;69.60;101355.44;5073639;28;20076;-64
2023/03/21 08:17:49;;;;;;;11.10;3.58;;;;;;;11.06;69.55;101356.28;5062349;28;20075;-65
2023/03/21 08:20:20;;;;;;;9.95;3.25;;;;;;;11.04;69.98;101347.59;5074771;28;20049;-64
2023/03/21 08:22:48;;;;;;;11.48;3.53;;;;;;;11.07;69.82;101346.34;5079520;28;20057;-64
2023/03/21 08:25:18;;;;;;;12.07;3.30;;;;;;;11.05;69.44;101346.56;5066679;28;20044;-65
2023/03/21 08:27:48;;;;;;;5.93;2.78;;;;;;;11.07;69.68;101340.97;5070834;28;20139;-65
2023/03/21 08:30:18;;;;;;;9.57;3.67;;;;;;;11.06;69.75;101337.44;5079304;28;20055;-65
2023/03/21 08:32:45;;;;;;;6.10;3.30;;;;;;;11.07;69.71;101332.88;5066694;28;20045;-64
2023/03/21 08:35:16;;;;;;;10.93;3.50;;;;;;;11.06;69.88;101325.88;5059869;28;20071;-65
2023/03/21 08:37:44;;;;;;;14.88;3.80;;;;;;;11.06;69.63;101325.88;5061953;28;20094;-64
2023/03/21 08:40:14;;;;;;;7.53;3.08;;;;;;;11.05;69.76;101327.72;5072765;28;20233;-64
2023/03/21 08:42:44;;;;;;;7.43;2.78;;;;;;;11.06;69.62;101326.69;5066653;28;20101;-65
2023/03/21 08:45:14;;;;;;;11.70;3.40;;;;;;;11.01;69.81;101317.59;5070395;28;20053;-65
2023/03/21 08:47:42;;;;;;;9.93;2.95;;;;;;;11.06;69.77;101329.38;5075370;28;20125;-66
2023/03/21 08:50:13;;;;;;;7.78;2.83;;;;;;;11.05;69.71;101325.03;5079288;28;20048;-65
2023/03/21 08:52:41;;;;;;;8.63;3.33;;;;;;;11.06;69.92;101331.25;5071579;28;20127;-66
2023/03/21 08:55:10;;;;;;;6.95;2.75;;;;;;;11.06;69.77;101329.38;5082371;28;20049;-64
2023/03/21 08:57:39;;;;;;;9.20;3.15;;;;;;;11.05;70.01;101330.41;5087814;28;20044;-66
2023/03/21 09:00:11;;;;;;;6.18;2.92;;;;;;;11.02;69.81;101316.56;5073883;28;20138;-65
2023/03/21 09:02:42;;;;;;;6.43;2.80;;;;;;;11.08;69.88;101316.53;5074287;28;20060;-66
2023/03/21 09:05:11;;;;;;;10.50;3.83;;;;;;;11.20;69.35;101314.00;5082006;28;20060;-66
2023/03/21 09:07:40;;;;;;;10.32;3.38;;;;;;;11.38;68.89;101321.38;5078009;28;20044;-65
2023/03/21 09:10:10;;;;;;;7.90;2.70;;;;;;;11.56;68.33;101313.38;5081552;28;20075;-65
2023/03/21 09:12:49;;;;;;;12.52;4.57;;;;;;;11.78;67.64;101315.75;5081625;28;20033;-65
2023/03/21 09:15:20;;;;;;;5.43;2.65;;;;;;;11.97;66.66;101304.84;5081751;28;20082;-65
2023/03/21 09:17:51;;;;;;;9.10;3.45;;;;;;;12.18;66.17;101313.53;5077370;28;20049;-65
2023/03/21 09:20:24;;;;;;;7.93;2.65;;;;;;;12.34;65.36;101303.03;5074138;28;20434;-65
2023/03/21 09:22:53;;;;;;;6.78;2.63;;;;;;;12.55;64.78;101298.25;5073609;28;20482;-65
2023/03/21 09:25:22;;;;;;;6.20;2.90;;;;;;;12.69;64.20;101294.38;5081209;28;20084;-66
2023/03/21 09:27:50;;;;;;;6.75;2.63;;;;;;;12.84;64.08;101294.00;5080863;28;20036;-66
2023/03/21 09:30:20;;;;;;;7.20;4.38;;;;;;;12.98;63.33;101292.78;5075912;28;20045;-66
2023/03/21 09:32:54;;;;;;;8.20;2.97;;;;;;;13.08;63.08;101289.53;5072883;28;20051;-66
2023/03/21 09:35:23;;;;;;;5.90;3.05;;;;;;;13.14;62.75;101288.63;5082478;28;20098;-66
2023/03/21 09:37:51;;;;;;;7.63;2.60;;;;;;;13.17;62.90;101289.03;5080920;28;20083;-65
2023/03/21 09:40:27;;;;;;;10.48;3.55;;;;;;;13.21;62.50;101284.00;5075637;28;20559;-65
2023/03/21 09:43:04;;;;;;;5.72;2.97;;;;;;;13.26;62.74;101279.56;5077072;28;20048;-66
2023/03/21 09:45:40;;;;;;;7.95;3.13;;;;;;;13.25;62.30;101286.00;5080022;28;20044;-65
2023/03/21 09:48:18;;;;;;;7.40;2.77;;;;;;;13.28;62.33;101282.03;5079829;28;20044;-65
2023/03/21 09:50:47;;;;;;;7.18;2.88;;;;;;;13.25;62.59;101282.50;5074809;28;20044;-65
2023/03/21 09:53:22;;;;;;;7.78;3.25;;;;;;;13.09;63.10;101277.69;5066070;28;20044;-65
2023/03/21 09:55:53;;;;;;;7.22;2.60;;;;;;;12.90;64.13;101271.50;5074299;28;20065;-65
2023/03/21 09:58:27;;;;;;;4.05;2.15;;;;;;;12.73;64.65;101270.47;5080076;28;20076;-65
2023/03/21 10:01:01;;;;;;;9.75;3.50;;;;;;;12.56;65.31;101268.38;5080324;28;20059;-65
2023/03/21 10:03:34;;;;;;;8.00;2.88;;;;;;;12.41;65.51;101270.63;5079605;28;20052;-65
2023/03/21 10:06:07;;;;;;;6.38;2.40;;;;;;;12.32;65.85;101269.25;5081669;28;20090;-66
2023/03/21 10:08:37;;;;;;;7.57;2.80;;;;;;;12.20;66.42;101260.25;5080819;28;20059;-65
2023/03/21 10:11:12;;;;;;;5.82;3.15;;;;;;;12.14;66.96;101261.16;5078119;28;20098;-65
2023/03/21 10:13:44;;;;;;;5.90;2.95;;;;;;;12.08;67.15;101262.88;5082780;28;20044;-66
2023/03/21 10:16:16;;;;;;;6.93;2.53;;;;;;;12.01;67.56;101254.88;5077083;28;20052;-65
2023/03/21 10:18:46;;;;;;;12.45;3.53;;;;;;;11.98;67.24;101263.38;5080122;28;20087;-65
2023/03/21 10:21:21;;;;;;;7.75;2.45;;;;;;;11.95;67.56;101257.63;5071266;28;20087;-66
2023/03/21 10:24:12;;;;;;;8.35;3.63;;;;;;;11.91;67.63;101249.16;5080731;28;20051;-66
2023/03/21 10:26:41;;;;;;;6.70;2.72;;;;;;;11.87;67.97;101247.94;5076675;28;20137;-66
2023/03/21 10:29:12;;;;;;;7.35;2.97;;;;;;;11.87;68.15;101255.19;5080215;28;20059;-66
2023/03/21 10:31:41;;;;;;;6.53;2.50;;;;;;;11.85;68.13;101251.91;5074643;28;20048;-65
2023/03/21 10:34:18;;;;;;;6.55;2.85;;;;;;;11.83;68.08;101246.75;5071341;28;20086;-65
2023/03/21 10:36:46;;;;;;;6.40;2.50;;;;;;;11.81;67.93;101245.31;5080974;28;20053;-66
2023/03/21 10:39:24;;;;;;;7.05;2.97;;;;;;;11.80;68.23;101249.03;5080419;28;20072;-66
2023/03/21 10:41:52;;;;;;;7.93;2.85;;;;;;;11.78;67.85;101245.75;5080070;28;20131;-66
2023/03/21 10:44:20;;;;;;;5.32;2.40;;;;;;;11.77;68.50;101242.22;5079707;28;20413;-66
2023/03/21 10:46:53;;;;;;;7.05;2.80;;;;;;;11.76;68.75;101240.56;5079415;28;20136;-66
2023/03/21 10:49:25;;;;;;;4.57;2.40;;;;;;;11.77;68.76;101247.63;5077080;28;20048;-66
2023/03/21 10:51:56;;;;;;;5.63;2.38;;;;;;;11.76;68.80;101248.63;5080482;28;20113;-66
2023/03/21 10:54:28;;;;;;;9.20;2.95;;;;;;;11.73;68.27;101238.31;5075274;28;20044;-66
2023/03/21 10:56:58;;;;;;;6.05;2.20;;;;;;;11.74;68.27;101254.22;5085822;28;20531;-66
2023/03/21 10:59:29;;;;;;;8.25;2.53;;;;;;;11.73;67.99;101239.13;5079179;28;20051;-66
2023/03/21 11:01:57;;;;;;;7.03;2.67;;;;;;;11.76;68.39;101245.13;5075656;28;20103;-66
2023/03/21 11:04:29;;;;;;;5.78;2.80;;;;;;;11.74;68.42;101234.56;5071032;28;20552;-66
2023/03/21 11:07:00;;;;;;;5.47;2.42;;;;;;;11.75;68.40;101233.53;5076121;28;20414;-65
2023/03/21 11:09:44;;;;;;;9.63;2.20;;;;;;;11.76;68.23;101234.34;5072406;28;20402;-65
2023/03/21 11:12:14;;;;;;;6.95;2.75;;;;;;;11.76;68.39;101234.34;5071860;28;20124;-66
2023/03/21 11:14:43;;;;;;;9.70;2.58;;;;;;;11.76;68.42;101235.16;5065984;28;20044;-67
2023/03/21 11:17:28;;;;;;;6.93;2.50;;;;;;;11.76;68.09;101237.84;5080028;28;20104;-66
2023/03/21 11:20:00;;;;;;;9.15;3.35;;;;;;;11.77;68.49;101236.00;5080080;28;20067;-66
2023/03/21 11:22:30;;;;;;;5.43;2.38;;;;;;;11.77;68.37;101236.84;5079353;28;20118;-66
2023/03/21 11:25:01;;;;;;;6.35;2.38;;;;;;;11.79;68.30;101244.72;5078968;28;20045;-66
2023/03/21 11:27:31;;;;;;;7.13;2.67;;;;;;;11.78;68.22;101243.88;5072534;28;20045;-66
2023/03/21 11:30:01;;;;;;;7.03;2.42;;;;;;;11.79;68.22;101242.84;5083056;28;20072;-65
2023/03/21 11:32:34;;;;;;;9.25;2.50;;;;;;;11.79;68.10;101233.94;5078950;28;20044;-65
2023/03/21 11:35:06;;;;;;;9.88;2.95;;;;;;;11.80;67.86;101231.03;5073395;28;20066;-66
2023/03/21 11:37:39;;;;;;;6.43;2.85;;;;;;;11.82;68.15;101225.41;5083869;28;20140;-66
2023/03/21 11:40:19;;;;;;;8.25;2.67;;;;;;;11.82;68.13;101228.94;5073961;28;20053;-65
2023/03/21 11:42:50;;;;;;;7.07;2.50;;;;;;;11.82;68.22;101228.94;5083061;28;20041;-66
2023/03/21 11:45:21;;;;;;;9.15;2.88;;;;;;;11.84;68.19;101231.41;5083714;28;20455;-65